Stacy, North Carolina
Current Conditions -  °F | °C
As of 6:58 PM on Wednesday 28 Jan 2015 (Local Time) from KMRH Reporting Station
Clear Clear  
Wind Chill: 30°   Ceiling: Unl
Heat Index: 36°   Visibility: 10mi
Dew Point: 18°   Wind: 7mph
Humidity: 48%   Direction: 340°NNW
Pressure: 30.28"   Gusts: NA
Location:  34.85°N, 76.42°W
Report Text: KMRH 282358Z AUTO 34006KT 10SM CLR 02/M08 A3028 RMK AO2 SLP255 T00221078 10072 20022 51031 TSNO
Loading
Personal Weather Stations






























Interactive Weather Map New forecast layout! Learn more

10-Day Weather Forecast

Advertisements
Track Severe Weather on mobile